Terminal Aerodrome Forecast
Issued by NWS Corpus Christi, TX

Home | Current Version | Previous Version | Text Only | Print | Product List | Glossary On
Versions: 1 2 3 4 5 6 7 8 9 10 11 12 13 14 15 16 17 18
307
FTUS44 KCRP 301243 AAA
TAFVCT
TAF AMD
KVCT 301243Z 3013/0112 VRB05KT 3SM BR VCSH FEW020 BKN030
     FM301430 06006KT P6SM FEW035 BKN120
     FM302100 12012KT P6SM BKN035
     FM010300 10006KT 5SM BR BKN012
     FM010800 07004KT 3SM BR OVC008=

USA.gov is the U.S. government's official web portal to all federal, state and local government web resources and services.